sensor_id;sensor_type;location;lat;lon;timestamp;P1;durP1;ratioP1;P2;durP2;ratioP2
57577;SDS011;43413;-33.790;150.826;2022-07-23T00:02:25;5.60;;;2.10;;
57577;SDS011;43413;-33.790;150.826;2022-07-23T00:04:52;6.82;;;1.75;;
57577;SDS011;43413;-33.790;150.826;2022-07-23T00:07:19;5.10;;;1.88;;
57577;SDS011;43413;-33.790;150.826;2022-07-23T00:09:46;6.68;;;1.75;;
57577;SDS011;43413;-33.790;150.826;2022-07-23T00:12:13;8.25;;;1.88;;
57577;SDS011;43413;-33.790;150.826;2022-07-23T00:14:40;8.15;;;2.15;;
57577;SDS011;43413;-33.790;150.826;2022-07-23T00:17:07;8.65;;;1.70;;
57577;SDS011;43413;-33.790;150.826;2022-07-23T00:19:35;7.18;;;1.27;;
57577;SDS011;43413;-33.790;150.826;2022-07-23T00:22:02;5.88;;;1.48;;
57577;SDS011;43413;-33.790;150.826;2022-07-23T00:24:29;7.00;;;1.50;;
57577;SDS011;43413;-33.790;150.826;2022-07-23T00:26:56;5.60;;;1.40;;
57577;SDS011;43413;-33.790;150.826;2022-07-23T00:29:23;4.32;;;1.23;;
57577;SDS011;43413;-33.790;150.826;2022-07-23T00:31:50;7.13;;;1.60;;
57577;SDS011;43413;-33.790;150.826;2022-07-23T00:34:17;5.43;;;1.63;;
57577;SDS011;43413;-33.790;150.826;2022-07-23T00:36:45;8.55;;;1.55;;
57577;SDS011;43413;-33.790;150.826;2022-07-23T00:39:12;6.07;;;1.35;;
57577;SDS011;43413;-33.790;150.826;2022-07-23T00:41:39;4.55;;;1.30;;
57577;SDS011;43413;-33.790;150.826;2022-07-23T00:46:49;10.70;;;1.90;;
57577;SDS011;43413;-33.790;150.826;2022-07-23T00:49:18;9.60;;;2.38;;
57577;SDS011;43413;-33.790;150.826;2022-07-23T00:51:46;8.35;;;2.33;;
57577;SDS011;43413;-33.790;150.826;2022-07-23T00:54:17;10.35;;;1.80;;
57577;SDS011;43413;-33.790;150.826;2022-07-23T00:56:45;7.32;;;2.15;;
57577;SDS011;43413;-33.790;150.826;2022-07-23T00:59:13;7.47;;;1.58;;
57577;SDS011;43413;-33.790;150.826;2022-07-23T01:01:40;10.68;;;2.33;;
57577;SDS011;43413;-33.790;150.826;2022-07-23T01:04:09;5.70;;;1.67;;
57577;SDS011;43413;-33.790;150.826;2022-07-23T01:06:37;5.63;;;1.38;;
57577;SDS011;43413;-33.790;150.826;2022-07-23T01:09:05;4.68;;;1.13;;
57577;SDS011;43413;-33.790;150.826;2022-07-23T01:11:36;6.32;;;1.25;;
57577;SDS011;43413;-33.790;150.826;2022-07-23T01:14:14;6.05;;;1.45;;
57577;SDS011;43413;-33.790;150.826;2022-07-23T01:16:44;6.25;;;1.00;;
57577;SDS011;43413;-33.790;150.826;2022-07-23T01:19:15;3.33;;;1.02;;
57577;SDS011;43413;-33.790;150.826;2022-07-23T01:21:49;4.25;;;1.13;;
57577;SDS011;43413;-33.790;150.826;2022-07-23T01:24:17;4.10;;;1.00;;
57577;SDS011;43413;-33.790;150.826;2022-07-23T01:26:48;5.65;;;1.20;;
57577;SDS011;43413;-33.790;150.826;2022-07-23T01:29:15;5.18;;;1.05;;
57577;SDS011;43413;-33.790;150.826;2022-07-23T01:31:44;5.30;;;1.20;;
57577;SDS011;43413;-33.790;150.826;2022-07-23T01:34:14;4.25;;;1.10;;
57577;SDS011;43413;-33.790;150.826;2022-07-23T01:36:44;4.38;;;1.02;;
57577;SDS011;43413;-33.790;150.826;2022-07-23T01:39:12;5.00;;;1.10;;
57577;SDS011;43413;-33.790;150.826;2022-07-23T01:41:39;5.65;;;1.00;;
57577;SDS011;43413;-33.790;150.826;2022-07-23T01:44:06;3.30;;;1.00;;
57577;SDS011;43413;-33.790;150.826;2022-07-23T01:46:33;3.55;;;0.95;;
57577;SDS011;43413;-33.790;150.826;2022-07-23T01:49:01;4.93;;;1.25;;
57577;SDS011;43413;-33.790;150.826;2022-07-23T01:51:28;2.75;;;0.80;;
57577;SDS011;43413;-33.790;150.826;2022-07-23T01:53:55;6.05;;;1.02;;
57577;SDS011;43413;-33.790;150.826;2022-07-23T01:56:22;5.47;;;0.90;;
57577;SDS011;43413;-33.790;150.826;2022-07-23T01:58:49;6.22;;;1.35;;
57577;SDS011;43413;-33.790;150.826;2022-07-23T02:01:16;5.25;;;1.10;;
57577;SDS011;43413;-33.790;150.826;2022-07-23T02:03:43;4.72;;;1.10;;
57577;SDS011;43413;-33.790;150.826;2022-07-23T02:06:10;5.00;;;1.15;;
57577;SDS011;43413;-33.790;150.826;2022-07-23T02:08:38;4.65;;;0.82;;
57577;SDS011;43413;-33.790;150.826;2022-07-23T02:11:05;3.08;;;0.70;;
57577;SDS011;43413;-33.790;150.826;2022-07-23T02:13:32;4.72;;;0.77;;
57577;SDS011;43413;-33.790;150.826;2022-07-23T02:15:59;3.53;;;0.85;;
57577;SDS011;43413;-33.790;150.826;2022-07-23T02:18:27;3.28;;;0.60;;
57577;SDS011;43413;-33.790;150.826;2022-07-23T02:20:54;3.08;;;0.80;;
57577;SDS011;43413;-33.790;150.826;2022-07-23T02:23:21;3.80;;;0.88;;
57577;SDS011;43413;-33.790;150.826;2022-07-23T02:25:48;3.28;;;0.60;;
57577;SDS011;43413;-33.790;150.826;2022-07-23T02:28:15;4.68;;;0.70;;
57577;SDS011;43413;-33.790;150.826;2022-07-23T02:30:42;4.47;;;1.00;;
57577;SDS011;43413;-33.790;150.826;2022-07-23T02:33:09;4.15;;;0.90;;
57577;SDS011;43413;-33.790;150.826;2022-07-23T02:35:36;3.97;;;0.90;;
57577;SDS011;43413;-33.790;150.826;2022-07-23T02:38:03;2.88;;;0.90;;
57577;SDS011;43413;-33.790;150.826;2022-07-23T02:40:31;4.82;;;1.08;;
57577;SDS011;43413;-33.790;150.826;2022-07-23T02:42:58;4.63;;;1.17;;
57577;SDS011;43413;-33.790;150.826;2022-07-23T02:45:25;4.53;;;1.58;;
57577;SDS011;43413;-33.790;150.826;2022-07-23T02:47:52;5.85;;;1.15;;
57577;SDS011;43413;-33.790;150.826;2022-07-23T02:50:19;3.70;;;1.08;;
57577;SDS011;43413;-33.790;150.826;2022-07-23T02:52:46;3.63;;;0.80;;
57577;SDS011;43413;-33.790;150.826;2022-07-23T02:55:13;3.67;;;0.88;;
57577;SDS011;43413;-33.790;150.826;2022-07-23T02:57:41;3.30;;;1.00;;
57577;SDS011;43413;-33.790;150.826;2022-07-23T03:00:08;1.95;;;0.80;;
57577;SDS011;43413;-33.790;150.826;2022-07-23T03:02:35;2.97;;;0.60;;
57577;SDS011;43413;-33.790;150.826;2022-07-23T03:05:02;1.13;;;0.57;;
57577;SDS011;43413;-33.790;150.826;2022-07-23T03:07:30;4.75;;;0.93;;
57577;SDS011;43413;-33.790;150.826;2022-07-23T03:09:57;5.97;;;1.05;;
57577;SDS011;43413;-33.790;150.826;2022-07-23T03:12:24;4.03;;;0.95;;
57577;SDS011;43413;-33.790;150.826;2022-07-23T03:14:51;4.43;;;1.40;;
57577;SDS011;43413;-33.790;150.826;2022-07-23T03:17:18;3.00;;;1.27;;
57577;SDS011;43413;-33.790;150.826;2022-07-23T03:19:45;6.10;;;1.45;;
57577;SDS011;43413;-33.790;150.826;2022-07-23T03:22:12;4.82;;;1.33;;
57577;SDS011;43413;-33.790;150.826;2022-07-23T03:24:39;6.88;;;1.65;;
57577;SDS011;43413;-33.790;150.826;2022-07-23T03:27:22;6.82;;;1.88;;
57577;SDS011;43413;-33.790;150.826;2022-07-23T03:29:51;5.95;;;1.40;;
57577;SDS011;43413;-33.790;150.826;2022-07-23T03:32:18;5.22;;;1.90;;
57577;SDS011;43413;-33.790;150.826;2022-07-23T03:34:46;7.13;;;1.90;;
57577;SDS011;43413;-33.790;150.826;2022-07-23T03:37:13;6.60;;;2.10;;
57577;SDS011;43413;-33.790;150.826;2022-07-23T03:39:40;6.15;;;2.42;;
57577;SDS011;43413;-33.790;150.826;2022-07-23T03:42:08;5.63;;;3.10;;
57577;SDS011;43413;-33.790;150.826;2022-07-23T03:44:36;6.35;;;2.80;;
57577;SDS011;43413;-33.790;150.826;2022-07-23T03:47:04;5.90;;;2.53;;
57577;SDS011;43413;-33.790;150.826;2022-07-23T03:49:32;5.35;;;1.70;;
57577;SDS011;43413;-33.790;150.826;2022-07-23T03:51:59;3.85;;;1.48;;
57577;SDS011;43413;-33.790;150.826;2022-07-23T03:54:26;2.72;;;1.00;;
57577;SDS011;43413;-33.790;150.826;2022-07-23T03:56:54;2.10;;;1.00;;
57577;SDS011;43413;-33.790;150.826;2022-07-23T03:59:21;4.15;;;0.80;;
57577;SDS011;43413;-33.790;150.826;2022-07-23T04:01:48;3.10;;;0.80;;
57577;SDS011;43413;-33.790;150.826;2022-07-23T04:04:15;3.60;;;0.95;;
57577;SDS011;43413;-33.790;150.826;2022-07-23T04:06:42;3.38;;;1.35;;
57577;SDS011;43413;-33.790;150.826;2022-07-23T04:09:09;3.78;;;1.60;;
57577;SDS011;43413;-33.790;150.826;2022-07-23T04:11:36;3.05;;;0.93;;
57577;SDS011;43413;-33.790;150.826;2022-07-23T04:14:03;3.05;;;0.93;;
57577;SDS011;43413;-33.790;150.826;2022-07-23T04:16:31;2.95;;;0.50;;
57577;SDS011;43413;-33.790;150.826;2022-07-23T04:18:58;4.68;;;1.00;;
57577;SDS011;43413;-33.790;150.826;2022-07-23T04:21:25;3.10;;;0.80;;
57577;SDS011;43413;-33.790;150.826;2022-07-23T04:23:52;3.25;;;0.50;;
57577;SDS011;43413;-33.790;150.826;2022-07-23T04:26:20;2.55;;;0.50;;
57577;SDS011;43413;-33.790;150.826;2022-07-23T04:28:47;1.05;;;0.40;;
57577;SDS011;43413;-33.790;150.826;2022-07-23T04:31:14;1.45;;;0.43;;
57577;SDS011;43413;-33.790;150.826;2022-07-23T04:33:41;0.20;;;0.20;;
57577;SDS011;43413;-33.790;150.826;2022-07-23T04:36:08;1.45;;;0.40;;
57577;SDS011;43413;-33.790;150.826;2022-07-23T04:38:35;2.20;;;0.57;;
57577;SDS011;43413;-33.790;150.826;2022-07-23T04:41:02;4.32;;;1.73;;
57577;SDS011;43413;-33.790;150.826;2022-07-23T04:43:30;5.60;;;4.18;;
57577;SDS011;43413;-33.790;150.826;2022-07-23T04:45:57;13.82;;;9.43;;
57577;SDS011;43413;-33.790;150.826;2022-07-23T04:48:24;10.00;;;9.00;;
57577;SDS011;43413;-33.790;150.826;2022-07-23T04:50:51;10.05;;;8.48;;
57577;SDS011;43413;-33.790;150.826;2022-07-23T04:53:18;10.02;;;7.55;;
57577;SDS011;43413;-33.790;150.826;2022-07-23T04:55:46;8.10;;;5.18;;
57577;SDS011;43413;-33.790;150.826;2022-07-23T04:58:13;6.47;;;2.70;;
57577;SDS011;43413;-33.790;150.826;2022-07-23T05:00:40;4.68;;;1.13;;
57577;SDS011;43413;-33.790;150.826;2022-07-23T05:03:09;5.00;;;0.88;;
57577;SDS011;43413;-33.790;150.826;2022-07-23T05:05:36;4.75;;;0.70;;
57577;SDS011;43413;-33.790;150.826;2022-07-23T05:08:04;2.75;;;0.70;;
57577;SDS011;43413;-33.790;150.826;2022-07-23T05:10:31;2.63;;;0.73;;
57577;SDS011;43413;-33.790;150.826;2022-07-23T05:12:59;2.63;;;0.80;;
57577;SDS011;43413;-33.790;150.826;2022-07-23T05:15:26;3.13;;;0.82;;
57577;SDS011;43413;-33.790;150.826;2022-07-23T05:17:53;2.80;;;0.82;;
57577;SDS011;43413;-33.790;150.826;2022-07-23T05:20:20;3.58;;;0.93;;
57577;SDS011;43413;-33.790;150.826;2022-07-23T05:22:47;1.80;;;0.40;;
57577;SDS011;43413;-33.790;150.826;2022-07-23T05:25:14;1.52;;;0.30;;
57577;SDS011;43413;-33.790;150.826;2022-07-23T05:27:41;1.05;;;0.20;;
57577;SDS011;43413;-33.790;150.826;2022-07-23T05:30:09;0.80;;;0.30;;
57577;SDS011;43413;-33.790;150.826;2022-07-23T05:32:36;1.15;;;0.40;;
57577;SDS011;43413;-33.790;150.826;2022-07-23T05:35:04;1.67;;;0.50;;
57577;SDS011;43413;-33.790;150.826;2022-07-23T05:37:31;2.05;;;0.45;;
57577;SDS011;43413;-33.790;150.826;2022-07-23T05:40:02;1.83;;;0.40;;
57577;SDS011;43413;-33.790;150.826;2022-07-23T05:42:31;1.45;;;0.77;;
57577;SDS011;43413;-33.790;150.826;2022-07-23T05:44:58;2.70;;;1.60;;
57577;SDS011;43413;-33.790;150.826;2022-07-23T05:47:25;1.98;;;1.00;;
57577;SDS011;43413;-33.790;150.826;2022-07-23T05:49:53;1.80;;;1.00;;
57577;SDS011;43413;-33.790;150.826;2022-07-23T05:52:20;2.60;;;1.10;;
57577;SDS011;43413;-33.790;150.826;2022-07-23T05:54:50;2.38;;;1.00;;
57577;SDS011;43413;-33.790;150.826;2022-07-23T05:57:17;1.67;;;0.70;;
57577;SDS011;43413;-33.790;150.826;2022-07-23T05:59:47;1.02;;;0.80;;
57577;SDS011;43413;-33.790;150.826;2022-07-23T06:02:14;2.28;;;0.70;;
57577;SDS011;43413;-33.790;150.826;2022-07-23T06:04:41;1.90;;;0.70;;
57577;SDS011;43413;-33.790;150.826;2022-07-23T06:07:08;3.22;;;0.60;;
57577;SDS011;43413;-33.790;150.826;2022-07-23T06:09:36;1.60;;;0.95;;
57577;SDS011;43413;-33.790;150.826;2022-07-23T06:12:03;4.20;;;1.42;;
57577;SDS011;43413;-33.790;150.826;2022-07-23T06:14:30;2.78;;;1.95;;
57577;SDS011;43413;-33.790;150.826;2022-07-23T06:16:57;3.25;;;2.40;;
57577;SDS011;43413;-33.790;150.826;2022-07-23T06:19:25;2.47;;;1.10;;
57577;SDS011;43413;-33.790;150.826;2022-07-23T06:21:52;1.75;;;1.10;;
57577;SDS011;43413;-33.790;150.826;2022-07-23T06:24:19;1.10;;;0.75;;
57577;SDS011;43413;-33.790;150.826;2022-07-23T06:26:47;2.67;;;1.17;;
57577;SDS011;43413;-33.790;150.826;2022-07-23T06:29:15;1.92;;;1.38;;
57577;SDS011;43413;-33.790;150.826;2022-07-23T06:31:42;2.10;;;1.50;;
57577;SDS011;43413;-33.790;150.826;2022-07-23T06:34:09;4.15;;;3.38;;
57577;SDS011;43413;-33.790;150.826;2022-07-23T06:36:36;4.05;;;3.60;;
57577;SDS011;43413;-33.790;150.826;2022-07-23T06:39:04;6.03;;;4.78;;
57577;SDS011;43413;-33.790;150.826;2022-07-23T06:41:31;3.97;;;2.28;;
57577;SDS011;43413;-33.790;150.826;2022-07-23T06:43:58;2.42;;;1.42;;
57577;SDS011;43413;-33.790;150.826;2022-07-23T06:46:25;1.95;;;0.90;;
57577;SDS011;43413;-33.790;150.826;2022-07-23T06:48:52;1.88;;;0.57;;
57577;SDS011;43413;-33.790;150.826;2022-07-23T06:51:19;3.22;;;0.52;;
57577;SDS011;43413;-33.790;150.826;2022-07-23T06:53:46;2.05;;;0.40;;
57577;SDS011;43413;-33.790;150.826;2022-07-23T06:56:14;1.25;;;0.50;;
57577;SDS011;43413;-33.790;150.826;2022-07-23T06:58:41;1.20;;;0.50;;
57577;SDS011;43413;-33.790;150.826;2022-07-23T07:01:08;2.65;;;0.90;;
57577;SDS011;43413;-33.790;150.826;2022-07-23T07:03:35;5.22;;;1.85;;
57577;SDS011;43413;-33.790;150.826;2022-07-23T07:06:02;3.35;;;1.42;;
57577;SDS011;43413;-33.790;150.826;2022-07-23T07:08:30;2.65;;;1.00;;
57577;SDS011;43413;-33.790;150.826;2022-07-23T07:10:57;2.58;;;0.70;;
57577;SDS011;43413;-33.790;150.826;2022-07-23T07:13:24;1.27;;;0.70;;
57577;SDS011;43413;-33.790;150.826;2022-07-23T07:15:51;2.83;;;0.90;;
57577;SDS011;43413;-33.790;150.826;2022-07-23T07:18:18;1.35;;;0.77;;
57577;SDS011;43413;-33.790;150.826;2022-07-23T07:20:45;1.17;;;0.77;;
57577;SDS011;43413;-33.790;150.826;2022-07-23T07:23:13;1.38;;;0.70;;
57577;SDS011;43413;-33.790;150.826;2022-07-23T07:25:40;3.33;;;0.80;;
57577;SDS011;43413;-33.790;150.826;2022-07-23T07:28:07;2.03;;;0.73;;
57577;SDS011;43413;-33.790;150.826;2022-07-23T07:30:34;0.85;;;0.50;;
57577;SDS011;43413;-33.790;150.826;2022-07-23T07:33:02;2.78;;;0.80;;
57577;SDS011;43413;-33.790;150.826;2022-07-23T07:35:32;2.50;;;0.93;;
57577;SDS011;43413;-33.790;150.826;2022-07-23T07:37:59;2.20;;;1.50;;
57577;SDS011;43413;-33.790;150.826;2022-07-23T07:40:30;7.57;;;1.70;;
57577;SDS011;43413;-33.790;150.826;2022-07-23T07:42:57;3.70;;;1.60;;
57577;SDS011;43413;-33.790;150.826;2022-07-23T07:45:24;2.67;;;1.25;;
57577;SDS011;43413;-33.790;150.826;2022-07-23T07:47:52;3.20;;;1.50;;
57577;SDS011;43413;-33.790;150.826;2022-07-23T07:50:20;4.38;;;1.30;;
57577;SDS011;43413;-33.790;150.826;2022-07-23T07:52:47;1.65;;;0.95;;
57577;SDS011;43413;-33.790;150.826;2022-07-23T07:55:15;2.15;;;1.10;;
57577;SDS011;43413;-33.790;150.826;2022-07-23T07:57:42;4.32;;;0.98;;
57577;SDS011;43413;-33.790;150.826;2022-07-23T08:00:09;1.42;;;0.82;;
57577;SDS011;43413;-33.790;150.826;2022-07-23T08:02:40;4.70;;;1.30;;
57577;SDS011;43413;-33.790;150.826;2022-07-23T08:05:08;4.28;;;1.02;;
57577;SDS011;43413;-33.790;150.826;2022-07-23T08:07:35;3.72;;;1.23;;
57577;SDS011;43413;-33.790;150.826;2022-07-23T08:15:06;3.75;;;1.10;;
57577;SDS011;43413;-33.790;150.826;2022-07-23T08:17:34;1.48;;;0.85;;
57577;SDS011;43413;-33.790;150.826;2022-07-23T08:20:02;4.47;;;1.20;;
57577;SDS011;43413;-33.790;150.826;2022-07-23T08:23:11;2.95;;;1.10;;
57577;SDS011;43413;-33.790;150.826;2022-07-23T08:25:20;3.60;;;1.58;;
57577;SDS011;43413;-33.790;150.826;2022-07-23T08:27:48;5.95;;;3.08;;
57577;SDS011;43413;-33.790;150.826;2022-07-23T08:30:15;4.28;;;2.45;;
57577;SDS011;43413;-33.790;150.826;2022-07-23T08:32:56;5.97;;;3.85;;
57577;SDS011;43413;-33.790;150.826;2022-07-23T08:35:29;5.00;;;3.20;;
57577;SDS011;43413;-33.790;150.826;2022-07-23T08:37:57;6.82;;;2.60;;
57577;SDS011;43413;-33.790;150.826;2022-07-23T08:40:30;4.40;;;2.17;;
57577;SDS011;43413;-33.790;150.826;2022-07-23T08:42:57;3.97;;;2.15;;
57577;SDS011;43413;-33.790;150.826;2022-07-23T08:45:26;4.38;;;2.10;;
57577;SDS011;43413;-33.790;150.826;2022-07-23T08:47:54;4.95;;;2.20;;
57577;SDS011;43413;-33.790;150.826;2022-07-23T08:50:22;2.95;;;2.10;;
57577;SDS011;43413;-33.790;150.826;2022-07-23T08:52:50;5.40;;;2.47;;
57577;SDS011;43413;-33.790;150.826;2022-07-23T08:55:17;3.67;;;2.80;;
57577;SDS011;43413;-33.790;150.826;2022-07-23T08:57:46;5.07;;;3.78;;
57577;SDS011;43413;-33.790;150.826;2022-07-23T09:00:14;7.40;;;3.67;;
57577;SDS011;43413;-33.790;150.826;2022-07-23T09:02:43;6.50;;;3.63;;
57577;SDS011;43413;-33.790;150.826;2022-07-23T09:05:10;7.40;;;3.88;;
57577;SDS011;43413;-33.790;150.826;2022-07-23T09:07:38;7.05;;;3.45;;
57577;SDS011;43413;-33.790;150.826;2022-07-23T09:10:25;4.95;;;3.08;;
57577;SDS011;43413;-33.790;150.826;2022-07-23T09:12:52;5.13;;;3.00;;
57577;SDS011;43413;-33.790;150.826;2022-07-23T09:15:19;4.07;;;3.10;;
57577;SDS011;43413;-33.790;150.826;2022-07-23T09:17:46;4.93;;;2.88;;
57577;SDS011;43413;-33.790;150.826;2022-07-23T09:20:15;4.85;;;2.65;;
57577;SDS011;43413;-33.790;150.826;2022-07-23T09:22:46;4.07;;;2.80;;
57577;SDS011;43413;-33.790;150.826;2022-07-23T09:25:15;5.20;;;2.67;;
57577;SDS011;43413;-33.790;150.826;2022-07-23T09:27:47;3.40;;;2.58;;
57577;SDS011;43413;-33.790;150.826;2022-07-23T09:30:14;4.82;;;2.95;;
57577;SDS011;43413;-33.790;150.826;2022-07-23T09:32:42;6.95;;;3.17;;
57577;SDS011;43413;-33.790;150.826;2022-07-23T09:35:09;7.15;;;3.10;;
57577;SDS011;43413;-33.790;150.826;2022-07-23T09:37:36;6.00;;;3.50;;
57577;SDS011;43413;-33.790;150.826;2022-07-23T09:40:08;6.93;;;3.15;;
57577;SDS011;43413;-33.790;150.826;2022-07-23T09:42:37;5.28;;;2.92;;
57577;SDS011;43413;-33.790;150.826;2022-07-23T09:45:04;5.00;;;3.80;;
57577;SDS011;43413;-33.790;150.826;2022-07-23T09:47:37;5.75;;;3.67;;
57577;SDS011;43413;-33.790;150.826;2022-07-23T09:50:05;5.55;;;3.80;;
57577;SDS011;43413;-33.790;150.826;2022-07-23T09:55:08;5.72;;;4.03;;
57577;SDS011;43413;-33.790;150.826;2022-07-23T09:57:36;7.68;;;3.75;;
57577;SDS011;43413;-33.790;150.826;2022-07-23T10:00:05;6.82;;;3.85;;
57577;SDS011;43413;-33.790;150.826;2022-07-23T10:02:35;8.48;;;3.75;;
57577;SDS011;43413;-33.790;150.826;2022-07-23T10:05:02;6.25;;;3.60;;
57577;SDS011;43413;-33.790;150.826;2022-07-23T10:07:34;9.52;;;4.38;;
57577;SDS011;43413;-33.790;150.826;2022-07-23T10:10:01;6.28;;;4.25;;
57577;SDS011;43413;-33.790;150.826;2022-07-23T10:12:28;6.55;;;4.15;;
57577;SDS011;43413;-33.790;150.826;2022-07-23T10:15:14;7.47;;;4.72;;
57577;SDS011;43413;-33.790;150.826;2022-07-23T10:17:41;5.43;;;4.03;;
57577;SDS011;43413;-33.790;150.826;2022-07-23T10:20:08;8.60;;;4.40;;
57577;SDS011;43413;-33.790;150.826;2022-07-23T10:22:40;8.60;;;4.63;;
57577;SDS011;43413;-33.790;150.826;2022-07-23T10:30:20;6.80;;;4.72;;
57577;SDS011;43413;-33.790;150.826;2022-07-23T10:37:50;8.02;;;4.95;;
57577;SDS011;43413;-33.790;150.826;2022-07-23T10:40:20;7.70;;;5.63;;
57577;SDS011;43413;-33.790;150.826;2022-07-23T10:42:49;10.70;;;5.82;;
57577;SDS011;43413;-33.790;150.826;2022-07-23T10:47:51;9.40;;;6.70;;
57577;SDS011;43413;-33.790;150.826;2022-07-23T10:50:19;8.85;;;6.18;;
57577;SDS011;43413;-33.790;150.826;2022-07-23T10:57:57;22.42;;;9.55;;
57577;SDS011;43413;-33.790;150.826;2022-07-23T11:00:24;19.98;;;10.05;;
57577;SDS011;43413;-33.790;150.826;2022-07-23T11:02:53;32.22;;;11.60;;
57577;SDS011;43413;-33.790;150.826;2022-07-23T11:05:22;80.95;;;15.15;;
57577;SDS011;43413;-33.790;150.826;2022-07-23T11:08:31;25.10;;;11.38;;
57577;SDS011;43413;-33.790;150.826;2022-07-23T11:10:53;23.40;;;11.05;;
57577;SDS011;43413;-33.790;150.826;2022-07-23T11:23:58;27.27;;;12.18;;
57577;SDS011;43413;-33.790;150.826;2022-07-23T11:32:07;16.95;;;9.75;;
57577;SDS011;43413;-33.790;150.826;2022-07-23T11:37:02;19.42;;;9.70;;
57577;SDS011;43413;-33.790;150.826;2022-07-23T11:39:30;17.70;;;9.13;;
57577;SDS011;43413;-33.790;150.826;2022-07-23T11:41:58;25.75;;;10.13;;
57577;SDS011;43413;-33.790;150.826;2022-07-23T11:44:26;16.73;;;8.32;;
57577;SDS011;43413;-33.790;150.826;2022-07-23T11:47:00;15.60;;;8.02;;
57577;SDS011;43413;-33.790;150.826;2022-07-23T11:49:28;16.70;;;7.53;;
57577;SDS011;43413;-33.790;150.826;2022-07-23T11:52:05;14.75;;;6.90;;
57577;SDS011;43413;-33.790;150.826;2022-07-23T11:54:36;12.18;;;6.93;;
57577;SDS011;43413;-33.790;150.826;2022-07-23T11:57:04;14.75;;;6.05;;
57577;SDS011;43413;-33.790;150.826;2022-07-23T11:59:31;13.20;;;6.60;;
57577;SDS011;43413;-33.790;150.826;2022-07-23T12:02:00;10.40;;;6.72;;
57577;SDS011;43413;-33.790;150.826;2022-07-23T12:04:43;11.43;;;6.30;;
57577;SDS011;43413;-33.790;150.826;2022-07-23T12:10:04;11.93;;;6.65;;
57577;SDS011;43413;-33.790;150.826;2022-07-23T12:12:44;19.60;;;7.40;;
57577;SDS011;43413;-33.790;150.826;2022-07-23T12:15:12;12.93;;;6.43;;
57577;SDS011;43413;-33.790;150.826;2022-07-23T12:17:41;33.22;;;7.82;;
57577;SDS011;43413;-33.790;150.826;2022-07-23T12:20:09;13.07;;;6.03;;
57577;SDS011;43413;-33.790;150.826;2022-07-23T12:22:39;14.15;;;6.63;;
57577;SDS011;43413;-33.790;150.826;2022-07-23T12:25:08;11.15;;;7.00;;
57577;SDS011;43413;-33.790;150.826;2022-07-23T12:27:36;14.15;;;6.80;;
57577;SDS011;43413;-33.790;150.826;2022-07-23T12:32:44;14.25;;;7.30;;
57577;SDS011;43413;-33.790;150.826;2022-07-23T12:35:11;15.93;;;6.47;;
57577;SDS011;43413;-33.790;150.826;2022-07-23T12:37:39;14.55;;;6.85;;
57577;SDS011;43413;-33.790;150.826;2022-07-23T12:40:23;17.75;;;7.22;;
57577;SDS011;43413;-33.790;150.826;2022-07-23T12:42:55;18.77;;;7.68;;
57577;SDS011;43413;-33.790;150.826;2022-07-23T12:45:22;13.30;;;6.80;;
57577;SDS011;43413;-33.790;150.826;2022-07-23T12:50:39;14.40;;;7.72;;
57577;SDS011;43413;-33.790;150.826;2022-07-23T12:53:14;11.93;;;6.78;;
57577;SDS011;43413;-33.790;150.826;2022-07-23T12:55:42;14.65;;;7.47;;
57577;SDS011;43413;-33.790;150.826;2022-07-23T12:58:11;14.75;;;7.13;;
57577;SDS011;43413;-33.790;150.826;2022-07-23T13:00:58;16.83;;;7.85;;
57577;SDS011;43413;-33.790;150.826;2022-07-23T13:05:52;12.55;;;6.97;;
57577;SDS011;43413;-33.790;150.826;2022-07-23T13:08:20;46.55;;;8.60;;
57577;SDS011;43413;-33.790;150.826;2022-07-23T13:10:47;22.50;;;8.25;;
57577;SDS011;43413;-33.790;150.826;2022-07-23T13:13:18;41.78;;;8.40;;
57577;SDS011;43413;-33.790;150.826;2022-07-23T13:15:46;105.25;;;10.70;;
57577;SDS011;43413;-33.790;150.826;2022-07-23T13:18:14;81.82;;;9.25;;
57577;SDS011;43413;-33.790;150.826;2022-07-23T13:20:43;197.20;;;15.27;;
57577;SDS011;43413;-33.790;150.826;2022-07-23T13:23:13;14.27;;;7.13;;
57577;SDS011;43413;-33.790;150.826;2022-07-23T13:25:40;32.08;;;7.50;;
57577;SDS011;43413;-33.790;150.826;2022-07-23T13:28:07;12.50;;;7.05;;
57577;SDS011;43413;-33.790;150.826;2022-07-23T13:30:34;92.57;;;9.88;;
57577;SDS011;43413;-33.790;150.826;2022-07-23T13:33:03;12.55;;;7.18;;
57577;SDS011;43413;-33.790;150.826;2022-07-23T13:35:31;42.10;;;7.25;;
57577;SDS011;43413;-33.790;150.826;2022-07-23T13:37:58;13.75;;;7.05;;
57577;SDS011;43413;-33.790;150.826;2022-07-23T13:40:28;18.95;;;8.48;;
57577;SDS011;43413;-33.790;150.826;2022-07-23T13:42:56;14.27;;;7.85;;
57577;SDS011;43413;-33.790;150.826;2022-07-23T13:45:23;13.98;;;7.63;;
57577;SDS011;43413;-33.790;150.826;2022-07-23T13:47:50;12.48;;;7.68;;
57577;SDS011;43413;-33.790;150.826;2022-07-23T13:50:18;19.13;;;8.75;;
57577;SDS011;43413;-33.790;150.826;2022-07-23T13:52:45;11.90;;;6.93;;
57577;SDS011;43413;-33.790;150.826;2022-07-23T13:55:12;15.18;;;7.82;;
57577;SDS011;43413;-33.790;150.826;2022-07-23T13:57:39;20.67;;;8.90;;
57577;SDS011;43413;-33.790;150.826;2022-07-23T14:00:07;15.23;;;7.53;;
57577;SDS011;43413;-33.790;150.826;2022-07-23T14:02:35;11.88;;;6.65;;
57577;SDS011;43413;-33.790;150.826;2022-07-23T14:05:04;12.13;;;7.07;;
57577;SDS011;43413;-33.790;150.826;2022-07-23T14:07:32;10.90;;;6.95;;
57577;SDS011;43413;-33.790;150.826;2022-07-23T14:10:00;16.50;;;6.97;;
57577;SDS011;43413;-33.790;150.826;2022-07-23T14:12:29;18.55;;;10.02;;
57577;SDS011;43413;-33.790;150.826;2022-07-23T14:14:57;21.98;;;10.88;;
57577;SDS011;43413;-33.790;150.826;2022-07-23T14:17:24;18.88;;;11.23;;
57577;SDS011;43413;-33.790;150.826;2022-07-23T14:19:51;22.05;;;12.00;;
57577;SDS011;43413;-33.790;150.826;2022-07-23T14:22:18;21.73;;;11.73;;
57577;SDS011;43413;-33.790;150.826;2022-07-23T14:24:45;24.55;;;11.60;;
57577;SDS011;43413;-33.790;150.826;2022-07-23T14:27:12;23.95;;;12.02;;
57577;SDS011;43413;-33.790;150.826;2022-07-23T14:29:39;32.88;;;16.23;;
57577;SDS011;43413;-33.790;150.826;2022-07-23T14:32:09;37.13;;;16.58;;
57577;SDS011;43413;-33.790;150.826;2022-07-23T14:34:37;29.17;;;15.23;;
57577;SDS011;43413;-33.790;150.826;2022-07-23T14:37:04;32.30;;;16.02;;
57577;SDS011;43413;-33.790;150.826;2022-07-23T14:39:31;35.63;;;17.15;;
57577;SDS011;43413;-33.790;150.826;2022-07-23T14:41:58;34.63;;;16.15;;
57577;SDS011;43413;-33.790;150.826;2022-07-23T14:44:25;29.88;;;14.07;;
57577;SDS011;43413;-33.790;150.826;2022-07-23T14:46:53;27.58;;;14.48;;
57577;SDS011;43413;-33.790;150.826;2022-07-23T14:49:20;40.95;;;17.77;;
57577;SDS011;43413;-33.790;150.826;2022-07-23T14:51:47;24.75;;;13.18;;
57577;SDS011;43413;-33.790;150.826;2022-07-23T14:54:14;47.55;;;17.10;;
57577;SDS011;43413;-33.790;150.826;2022-07-23T14:56:42;40.75;;;16.50;;
57577;SDS011;43413;-33.790;150.826;2022-07-23T14:59:09;34.28;;;15.70;;
57577;SDS011;43413;-33.790;150.826;2022-07-23T15:01:36;42.38;;;17.33;;
57577;SDS011;43413;-33.790;150.826;2022-07-23T15:04:04;36.15;;;18.27;;
57577;SDS011;43413;-33.790;150.826;2022-07-23T15:06:32;29.08;;;16.38;;
57577;SDS011;43413;-33.790;150.826;2022-07-23T15:08:59;46.88;;;17.67;;